Garndolbenmaen, United Kingdom
Current Conditions -  °F | °C
As of 1:50 PM on Thursday 30 Oct 2014 (Local Time) from EGOV Reporting Station
Broken Clouds Broken Clouds  
Wind Chill: 59°   Ceiling: 2200
Heat Index: 59°   Visibility: 6mi
Dew Point: 59°   Wind: 16mph
Humidity: 100%   Direction: 160°SSE
Pressure: 29.91"   Gusts: NA
Location:  52.96°N, 4.21°W
Report Text: EGOV 301350Z 16014KT 9999 FEW005 SCT007 BKN022 15/15 Q1013 GRN TEMPO 6000 -DZ GRN
Loading
Personal Weather Stations






























Interactive Weather Map
Tropical Storm Tracking
New forecast layout! Learn more

10-Day Weather Forecast

Advertisements
Track Severe Weather on mobile